createdAt,value
2017-03-08T00:00:34.873Z,6.91
2017-03-08T00:01:34.475Z,6.94
2017-03-08T00:02:34.806Z,7.01
2017-03-08T00:03:34.786Z,6.99
2017-03-08T00:04:34.766Z,7.04
2017-03-08T00:05:34.750Z,6.9
2017-03-08T00:06:34.735Z,7.04
2017-03-08T00:07:34.702Z,7.04
2017-03-08T00:08:34.692Z,7.06
2017-03-08T00:09:34.261Z,7.06
2017-03-08T00:10:34.622Z,7.04
2017-03-08T00:11:34.627Z,7.02
2017-03-08T00:12:34.185Z,7.04
2017-03-08T00:13:33.781Z,6.96
2017-03-08T00:14:34.132Z,6.91
2017-03-08T00:15:34.110Z,6.87
2017-03-08T00:16:34.528Z,6.86
2017-03-08T00:17:34.069Z,6.75
2017-03-08T00:18:34.457Z,6.78
2017-03-08T00:19:34.407Z,6.8
2017-03-08T00:20:34.418Z,6.77
2017-03-08T00:21:34.373Z,6.9
2017-03-08T00:22:33.967Z,6.86
2017-03-08T00:23:34.317Z,7.05
2017-03-08T00:24:34.294Z,7.08
2017-03-08T00:25:34.294Z,7.08
2017-03-08T00:26:33.908Z,7.01
2017-03-08T00:27:33.575Z,7.02
2017-03-08T00:28:33.814Z,6.96
2017-03-08T00:29:34.191Z,6.88
2017-03-08T00:30:33.481Z,6.98
2017-03-08T00:31:33.758Z,6.84
2017-03-08T00:32:33.442Z,6.73
2017-03-08T00:33:34.188Z,6.69
2017-03-08T00:34:33.680Z,6.73
2017-03-08T00:35:33.651Z,6.86
2017-03-08T00:36:34.138Z,6.75
2017-03-08T00:37:33.218Z,6.86
2017-03-08T00:38:33.655Z,6.78
2017-03-08T00:39:33.169Z,6.65
2017-03-08T00:40:33.552Z,6.68
2017-03-08T00:41:33.504Z,6.7
2017-03-08T00:42:33.877Z,6.7
2017-03-08T00:43:33.454Z,6.6
2017-03-08T00:44:33.914Z,6.62
2017-03-08T00:45:33.836Z,6.57
2017-03-08T00:46:33.783Z,6.6
2017-03-08T00:47:33.427Z,6.69
2017-03-08T00:48:33.390Z,6.6
2017-03-08T00:49:33.336Z,6.6
2017-03-08T00:50:33.311Z,6.57
2017-03-08T00:51:33.290Z,6.51
2017-03-08T00:52:33.657Z,6.6
2017-03-08T00:53:33.628Z,6.57
2017-03-08T00:54:33.206Z,6.63
2017-03-08T00:55:33.684Z,6.52
2017-03-08T00:56:33.151Z,6.62
2017-03-08T00:57:33.184Z,6.66
2017-03-08T00:58:33.118Z,6.7
2017-03-08T00:59:33.490Z,6.75
2017-03-08T01:00:33.076Z,6.75
2017-03-08T01:01:33.522Z,6.7
2017-03-08T01:02:33.015Z,6.69
2017-03-08T01:03:32.998Z,6.78
2017-03-08T01:04:32.983Z,6.72
2017-03-08T01:05:32.985Z,6.81
2017-03-08T01:06:33.372Z,6.83
2017-03-08T01:07:33.323Z,6.98
2017-03-08T01:08:33.302Z,6.98
2017-03-08T01:09:32.862Z,7.06
2017-03-08T01:10:32.831Z,7.05
2017-03-08T01:11:32.435Z,7.06
2017-03-08T01:12:33.240Z,7.08
2017-03-08T01:13:32.761Z,6.93
2017-03-08T01:14:33.201Z,6.87
2017-03-08T01:15:33.102Z,6.8
2017-03-08T01:16:32.697Z,6.78
2017-03-08T01:17:33.051Z,6.96
2017-03-08T01:18:32.644Z,6.83
2017-03-08T01:19:32.625Z,6.69
2017-03-08T01:20:32.600Z,6.72
2017-03-08T01:21:32.566Z,6.68
2017-03-08T01:22:32.566Z,6.66
2017-03-08T01:23:32.916Z,6.68
2017-03-08T01:24:32.894Z,6.77
2017-03-08T01:25:32.858Z,6.68
2017-03-08T01:26:32.849Z,6.72
2017-03-08T01:27:32.822Z,6.69
2017-03-08T01:28:32.909Z,6.57
2017-03-08T01:29:32.799Z,6.69
2017-03-08T01:30:32.370Z,6.72
2017-03-08T01:31:31.968Z,6.77
2017-03-08T01:32:32.762Z,6.75
2017-03-08T01:33:32.302Z,6.73
2017-03-08T01:34:32.288Z,6.7
2017-03-08T01:35:32.244Z,6.73
2017-03-08T01:36:32.608Z,6.77
2017-03-08T01:37:32.588Z,6.68
2017-03-08T01:38:32.179Z,6.73
2017-03-08T01:39:31.759Z,6.63
2017-03-08T01:40:31.745Z,6.65
2017-03-08T01:41:32.502Z,6.68
2017-03-08T01:42:32.085Z,6.65
2017-03-08T01:43:32.467Z,6.6
2017-03-08T01:44:32.434Z,6.72
2017-03-08T01:45:32.414Z,6.73
2017-03-08T01:46:31.994Z,6.78
2017-03-08T01:47:32.358Z,6.7
2017-03-08T01:48:31.672Z,6.72
2017-03-08T01:49:31.554Z,6.62
2017-03-08T01:50:31.597Z,6.57
2017-03-08T01:51:32.270Z,6.68
2017-03-08T01:52:31.870Z,6.65
2017-03-08T01:53:32.209Z,6.68
2017-03-08T01:54:32.188Z,6.75
2017-03-08T01:55:32.165Z,6.78
2017-03-08T01:56:32.138Z,6.69
2017-03-08T01:57:32.129Z,6.75
2017-03-08T01:58:31.717Z,6.68
2017-03-08T01:59:31.686Z,6.69
2017-03-08T02:00:32.055Z,6.72
2017-03-08T02:01:32.046Z,6.73
2017-03-08T02:02:31.635Z,6.8
2017-03-08T02:03:31.974Z,6.86
2017-03-08T02:04:31.945Z,6.81
2017-03-08T02:05:31.543Z,6.84
2017-03-08T02:06:31.932Z,6.86
2017-03-08T02:07:31.498Z,6.77
2017-03-08T02:08:31.521Z,6.72
2017-03-08T02:09:31.450Z,6.75
2017-03-08T02:10:31.817Z,6.8
2017-03-08T02:11:31.791Z,6.8
2017-03-08T02:12:30.987Z,6.75
2017-03-08T02:13:30.958Z,6.72
2017-03-08T02:14:31.782Z,6.72
2017-03-08T02:15:31.708Z,6.68
2017-03-08T02:16:31.677Z,6.73
2017-03-08T02:17:31.279Z,6.75
2017-03-08T02:18:31.246Z,6.66
2017-03-08T02:19:31.624Z,6.66
2017-03-08T02:20:31.196Z,6.65
2017-03-08T02:21:31.580Z,6.68
2017-03-08T02:22:30.870Z,6.66
2017-03-08T02:23:31.524Z,6.66
2017-03-08T02:24:31.482Z,6.72
2017-03-08T02:25:31.073Z,6.69
2017-03-08T02:26:30.669Z,6.73
2017-03-08T02:27:31.014Z,6.69
2017-03-08T02:28:31.438Z,6.69
2017-03-08T02:29:31.361Z,6.68
2017-03-08T02:30:30.983Z,6.66
2017-03-08T02:31:30.920Z,6.57
2017-03-08T02:32:30.899Z,6.68
2017-03-08T02:33:30.893Z,6.6
2017-03-08T02:34:30.478Z,6.54
2017-03-08T02:35:31.230Z,6.62
2017-03-08T02:36:31.188Z,6.57
2017-03-08T02:37:30.782Z,6.48
2017-03-08T02:38:30.766Z,6.5
2017-03-08T02:39:30.777Z,6.55
2017-03-08T02:40:31.104Z,6.54
2017-03-08T02:41:31.107Z,6.45
2017-03-08T02:42:30.668Z,6.22
2017-03-08T02:43:30.666Z,6.26
2017-03-08T02:44:30.224Z,6.07
2017-03-08T02:45:30.613Z,6.04
2017-03-08T02:46:30.587Z,6.16
2017-03-08T02:47:30.948Z,5.98
2017-03-08T02:48:30.522Z,6.03
2017-03-08T02:49:30.893Z,5.98
2017-03-08T02:50:30.508Z,6.11
2017-03-08T02:51:30.080Z,6.17
2017-03-08T02:52:30.819Z,6.1
2017-03-08T02:53:30.007Z,6.14
2017-03-08T02:54:30.757Z,6.07
2017-03-08T02:55:30.369Z,6.26
2017-03-08T02:56:29.947Z,6.18
2017-03-08T02:57:29.987Z,6.08
2017-03-08T02:58:30.278Z,6.06
2017-03-08T02:59:29.869Z,6.06
2017-03-08T03:00:30.631Z,5.98
2017-03-08T03:01:30.334Z,5.98
2017-03-08T03:02:30.204Z,5.95
2017-03-08T03:03:30.562Z,5.92
2017-03-08T03:04:30.140Z,5.88
2017-03-08T03:05:30.113Z,5.78
2017-03-08T03:06:30.492Z,5.83
2017-03-08T03:07:30.070Z,5.78
2017-03-08T03:08:30.084Z,5.86
2017-03-08T03:09:30.420Z,5.86
2017-03-08T03:10:29.630Z,5.93
2017-03-08T03:11:30.380Z,6
2017-03-08T03:12:30.339Z,5.98
2017-03-08T03:13:30.328Z,6.04
2017-03-08T03:14:29.523Z,6.07
2017-03-08T03:15:29.888Z,6.04
2017-03-08T03:16:30.248Z,6.06
2017-03-08T03:17:29.471Z,6.1
2017-03-08T03:18:30.213Z,6.03
2017-03-08T03:19:30.176Z,5.98
2017-03-08T03:20:29.779Z,5.95
2017-03-08T03:21:29.456Z,5.98
2017-03-08T03:22:29.713Z,5.98
2017-03-08T03:23:30.082Z,6.1
2017-03-08T03:24:30.064Z,6.04
2017-03-08T03:25:29.732Z,6.08
2017-03-08T03:26:30.022Z,5.9
2017-03-08T03:27:29.711Z,5.95
2017-03-08T03:28:29.610Z,5.77
2017-03-08T03:29:29.560Z,5.73
2017-03-08T03:30:29.624Z,5.88
2017-03-08T03:31:29.527Z,5.98
2017-03-08T03:32:29.869Z,6.07
2017-03-08T03:33:29.847Z,5.89
2017-03-08T03:34:29.418Z,5.86
2017-03-08T03:35:29.427Z,5.73
2017-03-08T03:36:29.018Z,5.77
2017-03-08T03:37:28.975Z,5.92
2017-03-08T03:38:29.335Z,5.9
2017-03-08T03:39:29.696Z,5.88
2017-03-08T03:40:29.339Z,5.85
2017-03-08T03:41:29.267Z,5.89
2017-03-08T03:42:29.623Z,5.92
2017-03-08T03:43:29.213Z,5.93
2017-03-08T03:44:29.573Z,6
2017-03-08T03:45:29.172Z,5.9
2017-03-08T03:46:29.521Z,5.92
2017-03-08T03:47:29.121Z,5.95
2017-03-08T03:48:29.092Z,5.92
2017-03-08T03:49:29.069Z,5.96
2017-03-08T03:50:29.070Z,5.93
2017-03-08T03:51:29.043Z,5.96
2017-03-08T03:52:29.388Z,6.07
2017-03-08T03:53:29.354Z,6.06
2017-03-08T03:54:28.556Z,6.11
2017-03-08T03:55:28.925Z,6.08
2017-03-08T03:56:29.286Z,6.07
2017-03-08T03:57:29.278Z,6.06
2017-03-08T03:58:28.840Z,5.83
2017-03-08T03:59:28.825Z,5.73
2017-03-08T04:00:28.804Z,5.77
2017-03-08T04:01:28.778Z,5.92
2017-03-08T04:02:28.363Z,5.77
2017-03-08T04:03:28.731Z,5.75
2017-03-08T04:04:29.096Z,5.92
2017-03-08T04:05:28.702Z,6.06
2017-03-08T04:06:28.649Z,5.93
2017-03-08T04:07:29.022Z,5.93
2017-03-08T04:08:28.621Z,5.9
2017-03-08T04:09:28.979Z,5.9
2017-03-08T04:10:28.959Z,5.85
2017-03-08T04:11:28.531Z,5.99
2017-03-08T04:12:28.918Z,5.85
2017-03-08T04:13:28.097Z,5.83
2017-03-08T04:14:28.458Z,5.86
2017-03-08T04:15:28.827Z,5.6
2017-03-08T04:16:28.037Z,5.65
2017-03-08T04:17:28.396Z,5.7
2017-03-08T04:18:28.078Z,5.56
2017-03-08T04:19:28.365Z,5.63
2017-03-08T04:20:28.383Z,5.7
2017-03-08T04:21:28.292Z,5.73
2017-03-08T04:22:28.333Z,5.67
2017-03-08T04:23:28.248Z,5.62
2017-03-08T04:24:27.829Z,5.67
2017-03-08T04:25:28.582Z,5.81
2017-03-08T04:26:28.561Z,5.78
2017-03-08T04:27:28.170Z,5.81
2017-03-08T04:28:28.510Z,5.77
2017-03-08T04:29:28.487Z,5.81
2017-03-08T04:30:28.091Z,5.63
2017-03-08T04:31:28.432Z,5.41
2017-03-08T04:32:28.478Z,5.44
2017-03-08T04:33:27.997Z,5.6
2017-03-08T04:34:28.039Z,5.65
2017-03-08T04:35:28.346Z,5.73
2017-03-08T04:36:28.025Z,5.67
2017-03-08T04:37:27.935Z,5.75
2017-03-08T04:38:28.046Z,5.75
2017-03-08T04:39:27.860Z,5.73
2017-03-08T04:40:27.843Z,5.67
2017-03-08T04:41:27.809Z,5.77
2017-03-08T04:42:28.186Z,5.96
2017-03-08T04:43:27.765Z,5.93
2017-03-08T04:44:27.752Z,5.92
2017-03-08T04:45:27.329Z,5.95
2017-03-08T04:46:27.692Z,5.95
2017-03-08T04:47:28.201Z,5.75
2017-03-08T04:48:27.350Z,5.75
2017-03-08T04:49:27.239Z,5.81
2017-03-08T04:50:27.600Z,5.67
2017-03-08T04:51:27.970Z,5.67
2017-03-08T04:52:27.927Z,5.7
2017-03-08T04:53:27.641Z,5.77
2017-03-08T04:54:27.887Z,5.7
2017-03-08T04:55:27.988Z,5.71
2017-03-08T04:56:27.476Z,5.6
2017-03-08T04:57:27.441Z,5.53
2017-03-08T04:58:27.790Z,5.5
2017-03-08T04:59:26.974Z,5.46
2017-03-08T05:00:27.746Z,5.6
2017-03-08T05:01:27.399Z,5.74
2017-03-08T05:02:27.328Z,5.7
2017-03-08T05:03:26.880Z,5.47
2017-03-08T05:04:27.694Z,5.44
2017-03-08T05:05:27.223Z,5.47
2017-03-08T05:06:27.590Z,5.67
2017-03-08T05:07:27.280Z,5.57
2017-03-08T05:08:27.537Z,5.56
2017-03-08T05:09:27.531Z,5.6
2017-03-08T05:10:27.095Z,5.44
2017-03-08T05:11:27.087Z,5.63
2017-03-08T05:12:27.427Z,5.55
2017-03-08T05:13:27.427Z,5.5
2017-03-08T05:14:27.396Z,5.41
2017-03-08T05:15:26.983Z,5.38
2017-03-08T05:16:26.567Z,5.34
2017-03-08T05:17:26.955Z,5.35
2017-03-08T05:18:27.335Z,5.34
2017-03-08T05:19:26.526Z,5.31
2017-03-08T05:20:26.863Z,5.44
2017-03-08T05:21:26.852Z,5.6
2017-03-08T05:22:27.211Z,5.6
2017-03-08T05:23:27.175Z,5.47
2017-03-08T05:24:27.151Z,5.49
2017-03-08T05:25:26.730Z,5.56
2017-03-08T05:26:27.109Z,5.41
2017-03-08T05:27:26.293Z,5.39
2017-03-08T05:28:26.679Z,5.34
2017-03-08T05:29:26.647Z,5.6
2017-03-08T05:30:26.608Z,5.65
2017-03-08T05:31:26.609Z,5.6
2017-03-08T05:32:26.959Z,5.47
2017-03-08T05:33:26.552Z,5.57
2017-03-08T05:34:26.511Z,5.44
2017-03-08T05:35:26.497Z,5.59
2017-03-08T05:36:26.090Z,5.67
2017-03-08T05:37:26.484Z,5.6
2017-03-08T05:38:26.423Z,5.65
2017-03-08T05:39:26.793Z,5.67
2017-03-08T05:40:26.763Z,5.57
2017-03-08T05:41:26.742Z,5.6
2017-03-08T05:42:26.723Z,5.46
2017-03-08T05:43:26.343Z,5.59
2017-03-08T05:44:26.271Z,5.62
2017-03-08T05:45:26.624Z,5.71
2017-03-08T05:46:26.597Z,5.6
2017-03-08T05:47:26.249Z,5.5
2017-03-08T05:48:26.161Z,5.59
2017-03-08T05:49:26.178Z,5.74
2017-03-08T05:50:26.124Z,5.77
2017-03-08T05:51:26.112Z,5.68
2017-03-08T05:52:26.079Z,5.81
2017-03-08T05:53:26.046Z,5.81
2017-03-08T05:54:26.052Z,5.73
2017-03-08T05:55:26.385Z,5.93
2017-03-08T05:56:25.582Z,6.04
2017-03-08T05:57:25.573Z,6.07
2017-03-08T05:58:26.000Z,6.03
2017-03-08T05:59:26.406Z,5.96
2017-03-08T06:00:26.273Z,5.88
2017-03-08T06:01:26.239Z,5.99
2017-03-08T06:02:26.323Z,5.85
2017-03-08T06:03:26.202Z,5.71
2017-03-08T06:04:26.171Z,5.75
2017-03-08T06:05:25.866Z,5.77
2017-03-08T06:06:25.740Z,5.7
2017-03-08T06:07:26.236Z,5.59
2017-03-08T06:08:25.744Z,5.59
2017-03-08T06:09:25.298Z,5.62
2017-03-08T06:10:25.322Z,5.62
2017-03-08T06:11:25.609Z,5.53
2017-03-08T06:12:25.966Z,5.63
2017-03-08T06:13:25.604Z,5.73
2017-03-08T06:14:26.018Z,5.88
2017-03-08T06:15:25.537Z,5.73
2017-03-08T06:16:25.885Z,5.68
2017-03-08T06:17:25.540Z,5.6
2017-03-08T06:18:25.824Z,5.62
2017-03-08T06:19:25.433Z,5.62
2017-03-08T06:20:25.432Z,5.68
2017-03-08T06:21:25.366Z,5.7
2017-03-08T06:22:25.332Z,5.78
2017-03-08T06:23:25.692Z,5.9
2017-03-08T06:24:25.290Z,5.9
2017-03-08T06:25:25.683Z,5.99
2017-03-08T06:26:25.350Z,5.96
2017-03-08T06:27:25.221Z,6.07
2017-03-08T06:28:25.233Z,5.93
2017-03-08T06:29:25.178Z,6.06
2017-03-08T06:30:25.278Z,6.16
2017-03-08T06:31:25.503Z,6.03
2017-03-08T06:32:25.497Z,5.98
2017-03-08T06:33:25.085Z,5.96
2017-03-08T06:34:25.114Z,5.93
2017-03-08T06:35:25.405Z,5.92
2017-03-08T06:36:25.385Z,5.81
2017-03-08T06:37:24.964Z,5.88
2017-03-08T06:38:25.057Z,5.92
2017-03-08T06:39:25.305Z,5.9
2017-03-08T06:40:25.290Z,5.83
2017-03-08T06:41:25.306Z,5.74
2017-03-08T06:42:24.846Z,5.83
2017-03-08T06:43:24.835Z,5.86
2017-03-08T06:44:25.189Z,5.81
2017-03-08T06:45:25.199Z,5.9
2017-03-08T06:46:24.750Z,5.95
2017-03-08T06:47:24.738Z,5.95
2017-03-08T06:48:25.108Z,5.99
2017-03-08T06:49:25.072Z,6
2017-03-08T06:50:24.656Z,6.11
2017-03-08T06:51:25.022Z,6.21
2017-03-08T06:52:25.008Z,6.3
2017-03-08T06:53:24.573Z,6.3
2017-03-08T06:54:24.575Z,6.16
2017-03-08T06:55:24.531Z,6.11
2017-03-08T06:56:24.515Z,6.27
2017-03-08T06:57:24.492Z,6.07
2017-03-08T06:58:24.871Z,6.17
2017-03-08T06:59:24.442Z,6.21
2017-03-08T07:00:24.792Z,6.11
2017-03-08T07:01:24.031Z,6.16
2017-03-08T07:02:23.971Z,6.07
2017-03-08T07:03:23.970Z,6.07
2017-03-08T07:04:24.319Z,6.08
2017-03-08T07:05:24.682Z,6.11
2017-03-08T07:06:24.668Z,6.03
2017-03-08T07:07:24.637Z,5.98
2017-03-08T07:08:24.217Z,5.9
2017-03-08T07:09:24.216Z,5.9
2017-03-08T07:10:24.587Z,5.95
2017-03-08T07:11:24.138Z,5.96
2017-03-08T07:12:24.516Z,5.98
2017-03-08T07:13:23.723Z,5.99
2017-03-08T07:14:23.717Z,5.93
2017-03-08T07:15:24.054Z,6.11
2017-03-08T07:16:24.433Z,6.22
2017-03-08T07:17:24.472Z,6.3
2017-03-08T07:18:24.433Z,6.36
2017-03-08T07:19:24.012Z,6.25
2017-03-08T07:20:23.976Z,6.22
2017-03-08T07:21:23.901Z,6.29
2017-03-08T07:22:24.287Z,6.3
2017-03-08T07:23:23.860Z,6.22
2017-03-08T07:24:23.882Z,6.3
2017-03-08T07:25:23.799Z,6.41
2017-03-08T07:26:23.882Z,6.45
2017-03-08T07:27:23.368Z,6.41
2017-03-08T07:28:24.130Z,6.43
2017-03-08T07:29:24.170Z,6.36
2017-03-08T07:30:23.332Z,6.37
2017-03-08T07:31:24.155Z,6.35
2017-03-08T07:32:24.046Z,6.45
2017-03-08T07:33:23.619Z,6.63
2017-03-08T07:34:23.988Z,6.68
2017-03-08T07:35:23.583Z,6.72
2017-03-08T07:36:24.205Z,6.62
2017-03-08T07:37:23.930Z,6.69
2017-03-08T07:38:23.904Z,6.81
2017-03-08T07:39:23.083Z,6.69
2017-03-08T07:40:23.460Z,6.77
2017-03-08T07:41:23.815Z,6.72
2017-03-08T07:42:23.412Z,6.72
2017-03-08T07:43:23.446Z,6.6
2017-03-08T07:44:23.911Z,6.54
2017-03-08T07:45:23.735Z,6.37
2017-03-08T07:46:23.311Z,6.47
2017-03-08T07:47:23.277Z,6.47
2017-03-08T07:48:23.649Z,6.41
2017-03-08T07:49:23.697Z,6.47
2017-03-08T07:50:23.221Z,6.43
2017-03-08T07:51:23.173Z,6.44
2017-03-08T07:52:23.152Z,6.35
2017-03-08T07:53:23.155Z,6.41
2017-03-08T07:54:22.732Z,6.44
2017-03-08T07:55:23.083Z,6.35
2017-03-08T07:56:23.567Z,6.43
2017-03-08T07:57:23.431Z,6.3
2017-03-08T07:58:23.011Z,6.25
2017-03-08T07:59:22.997Z,6.36
2017-03-08T08:00:22.959Z,6.37
2017-03-08T08:01:22.952Z,6.44
2017-03-08T08:02:23.315Z,6.44
2017-03-08T08:03:22.907Z,6.48
2017-03-08T08:04:22.866Z,6.4
2017-03-08T08:05:23.238Z,6.5
2017-03-08T08:06:22.817Z,6.41
2017-03-08T08:07:22.806Z,6.43
2017-03-08T08:08:22.776Z,6.45
2017-03-08T08:09:22.346Z,6.4
2017-03-08T08:10:23.222Z,6.65
2017-03-08T08:11:23.074Z,6.62
2017-03-08T08:12:23.074Z,6.63
2017-03-08T08:13:22.658Z,6.68
2017-03-08T08:14:23.013Z,6.54
2017-03-08T08:15:22.993Z,6.63
2017-03-08T08:16:22.592Z,6.69
2017-03-08T08:17:22.951Z,6.69
2017-03-08T08:18:22.919Z,6.65
2017-03-08T08:19:22.520Z,6.57
2017-03-08T08:20:22.896Z,6.73
2017-03-08T08:21:22.850Z,6.72
2017-03-08T08:22:22.829Z,6.68
2017-03-08T08:23:22.818Z,6.73
2017-03-08T08:24:22.378Z,6.72
2017-03-08T08:25:22.766Z,6.68
2017-03-08T08:26:22.325Z,6.81
2017-03-08T08:27:21.915Z,6.83
2017-03-08T08:28:22.297Z,6.84
2017-03-08T08:29:22.665Z,6.87
2017-03-08T08:30:22.629Z,6.86
2017-03-08T08:31:21.891Z,6.86
2017-03-08T08:32:22.191Z,6.77
2017-03-08T08:33:22.592Z,6.9
2017-03-08T08:34:22.532Z,7.04
2017-03-08T08:35:22.514Z,6.83
2017-03-08T08:36:22.081Z,6.99
2017-03-08T08:37:22.064Z,7.09
2017-03-08T08:38:22.056Z,6.93
2017-03-08T08:39:22.032Z,7.01
2017-03-08T08:40:22.419Z,7.04
2017-03-08T08:41:22.395Z,6.96
2017-03-08T08:42:21.976Z,6.96
2017-03-08T08:43:22.309Z,7.05
2017-03-08T08:44:21.907Z,7.09
2017-03-08T08:45:21.969Z,7.14
2017-03-08T08:46:22.266Z,7.06
2017-03-08T08:47:22.226Z,7.16
2017-03-08T08:48:21.468Z,7.16
2017-03-08T08:49:21.835Z,7.24
2017-03-08T08:50:22.203Z,7.11
2017-03-08T08:51:22.142Z,7.09
2017-03-08T08:52:22.121Z,7.19
2017-03-08T08:53:22.081Z,7.14
2017-03-08T08:54:22.171Z,7.09
2017-03-08T08:55:22.048Z,7.17
2017-03-08T08:56:22.079Z,7.08
2017-03-08T08:57:21.600Z,7.08
2017-03-08T08:58:21.575Z,7.12
2017-03-08T08:59:21.931Z,7.14
2017-03-08T09:00:21.629Z,7.19
2017-03-08T09:01:21.513Z,7.2
2017-03-08T09:02:21.472Z,7.16
2017-03-08T09:03:21.448Z,7.24
2017-03-08T09:04:21.833Z,7.39
2017-03-08T09:05:21.808Z,7.26
2017-03-08T09:06:21.846Z,7.21
2017-03-08T09:07:21.755Z,7.21
2017-03-08T09:08:21.764Z,7.2
2017-03-08T09:09:21.784Z,7.3
2017-03-08T09:10:21.683Z,7.29
2017-03-08T09:11:21.285Z,7.2
2017-03-08T09:12:21.243Z,7.24
2017-03-08T09:13:20.819Z,7.27
2017-03-08T09:14:21.199Z,7.21
2017-03-08T09:15:20.780Z,7.21
2017-03-08T09:16:21.149Z,7.26
2017-03-08T09:17:21.572Z,7.24
2017-03-08T09:18:21.492Z,7.21
2017-03-08T09:19:21.076Z,7.23
2017-03-08T09:20:21.448Z,7.2
2017-03-08T09:21:20.638Z,7.39
2017-03-08T09:22:21.009Z,7.39
2017-03-08T09:23:20.987Z,7.39
2017-03-08T09:24:21.347Z,7.45
2017-03-08T09:25:20.928Z,7.38
2017-03-08T09:26:20.915Z,7.31
2017-03-08T09:27:20.915Z,7.45
2017-03-08T09:28:21.264Z,7.44
2017-03-08T09:29:20.456Z,7.53
2017-03-08T09:30:21.226Z,7.6
2017-03-08T09:31:20.800Z,7.56
2017-03-08T09:32:20.774Z,7.55
2017-03-08T09:33:21.180Z,7.42
2017-03-08T09:34:21.112Z,7.45
2017-03-08T09:35:21.107Z,7.45
2017-03-08T09:36:20.682Z,7.48
2017-03-08T09:37:21.042Z,7.42
2017-03-08T09:38:21.019Z,7.42
2017-03-08T09:39:20.980Z,7.48
2017-03-08T09:40:20.581Z,7.47
2017-03-08T09:41:20.940Z,7.56
2017-03-08T09:42:20.557Z,7.59
2017-03-08T09:43:20.899Z,7.6
2017-03-08T09:44:20.877Z,7.45
2017-03-08T09:45:20.484Z,7.6
2017-03-08T09:46:20.816Z,7.73
2017-03-08T09:47:20.054Z,7.68
2017-03-08T09:48:20.405Z,7.82
2017-03-08T09:49:20.053Z,7.76
2017-03-08T09:50:20.723Z,7.75
2017-03-08T09:51:20.323Z,7.68
2017-03-08T09:52:20.687Z,7.76
2017-03-08T09:53:20.671Z,7.6
2017-03-08T09:54:20.651Z,7.73
2017-03-08T09:55:20.231Z,7.68
2017-03-08T09:56:20.220Z,7.79
2017-03-08T09:57:20.587Z,7.96
2017-03-08T09:58:20.561Z,7.94
2017-03-08T09:59:20.160Z,7.88
2017-03-08T10:00:20.509Z,7.88
2017-03-08T10:01:19.709Z,7.79
2017-03-08T10:02:20.482Z,7.85
2017-03-08T10:03:20.426Z,7.78
2017-03-08T10:04:20.037Z,7.82
2017-03-08T10:05:20.405Z,7.85
2017-03-08T10:06:20.366Z,7.96
2017-03-08T10:07:20.345Z,7.91
2017-03-08T10:08:20.327Z,7.83
2017-03-08T10:09:20.283Z,7.82
2017-03-08T10:10:20.291Z,7.85
2017-03-08T10:11:20.252Z,7.79
2017-03-08T10:12:19.859Z,7.83
2017-03-08T10:13:19.820Z,7.88
2017-03-08T10:14:20.100Z,7.93
2017-03-08T10:15:19.839Z,7.97
2017-03-08T10:16:19.361Z,7.88
2017-03-08T10:17:19.716Z,7.99
2017-03-08T10:18:19.308Z,7.91
2017-03-08T10:19:20.050Z,7.93
2017-03-08T10:20:20.048Z,7.91
2017-03-08T10:21:20.019Z,7.91
2017-03-08T10:22:19.986Z,7.91
2017-03-08T10:23:19.626Z,7.81
2017-03-08T10:24:19.164Z,7.85
2017-03-08T10:25:19.535Z,7.88
2017-03-08T10:26:19.504Z,7.88
2017-03-08T10:27:19.872Z,7.83
2017-03-08T10:28:19.843Z,7.73
2017-03-08T10:29:19.814Z,7.78
2017-03-08T10:30:19.013Z,7.68
2017-03-08T10:31:19.764Z,7.79
2017-03-08T10:32:19.351Z,7.82
2017-03-08T10:33:19.350Z,7.64
2017-03-08T10:34:19.321Z,7.73
2017-03-08T10:35:19.300Z,7.75
2017-03-08T10:36:19.709Z,7.81
2017-03-08T10:37:19.229Z,7.64
2017-03-08T10:38:18.834Z,7.73
2017-03-08T10:39:19.206Z,7.64
2017-03-08T10:40:19.199Z,7.56
2017-03-08T10:41:19.146Z,7.72
2017-03-08T10:42:19.147Z,7.72
2017-03-08T10:43:19.494Z,7.62
2017-03-08T10:44:18.715Z,7.55
2017-03-08T10:45:18.667Z,7.45
2017-03-08T10:46:19.454Z,7.49
2017-03-08T10:47:19.032Z,7.47
2017-03-08T10:48:19.384Z,7.62
2017-03-08T10:49:18.972Z,7.59
2017-03-08T10:50:19.340Z,7.41
2017-03-08T10:51:18.909Z,7.57
2017-03-08T10:52:18.900Z,7.64
2017-03-08T10:53:19.289Z,7.64
2017-03-08T10:54:18.860Z,7.57
2017-03-08T10:55:19.243Z,7.53
2017-03-08T10:56:18.416Z,7.49
2017-03-08T10:57:19.179Z,7.38
2017-03-08T10:58:19.136Z,7.26
2017-03-08T10:59:18.757Z,7.41
2017-03-08T11:00:18.707Z,7.3
2017-03-08T11:01:18.681Z,7.39
2017-03-08T11:02:19.068Z,7.38
2017-03-08T11:03:18.636Z,7.19
2017-03-08T11:04:18.715Z,7.24
2017-03-08T11:05:18.205Z,7.23
2017-03-08T11:06:18.984Z,7.2
2017-03-08T11:07:18.553Z,7.26
2017-03-08T11:08:18.983Z,7.38
2017-03-08T11:09:18.884Z,7.35
2017-03-08T11:10:18.493Z,7.16
2017-03-08T11:11:18.448Z,7.09
2017-03-08T11:12:18.430Z,7.2
2017-03-08T11:13:18.029Z,7.21
2017-03-08T11:14:18.379Z,7.29
2017-03-08T11:15:18.349Z,7.38
2017-03-08T11:16:18.748Z,7.17
2017-03-08T11:17:18.310Z,7.08
2017-03-08T11:18:18.360Z,7.16
2017-03-08T11:19:18.670Z,7.21
2017-03-08T11:20:18.632Z,7.31
2017-03-08T11:21:18.606Z,7.3
2017-03-08T11:22:18.705Z,7.23
2017-03-08T11:23:18.577Z,7.29
2017-03-08T11:24:17.782Z,6.94
2017-03-08T11:25:18.592Z,6.98
2017-03-08T11:26:18.473Z,6.84
2017-03-08T11:27:18.183Z,6.8
2017-03-08T11:28:18.054Z,6.93
2017-03-08T11:29:18.087Z,6.93
2017-03-08T11:30:18.004Z,7.05
2017-03-08T11:31:18.069Z,7.2
2017-03-08T11:32:17.971Z,7.19
2017-03-08T11:33:18.462Z,7.2
2017-03-08T11:34:17.919Z,7.11
2017-03-08T11:35:18.024Z,6.9
2017-03-08T11:36:17.870Z,6.81
2017-03-08T11:37:18.276Z,6.69
2017-03-08T11:38:18.213Z,6.72
2017-03-08T11:39:18.180Z,6.72
2017-03-08T11:40:17.807Z,6.77
2017-03-08T11:41:18.246Z,6.73
2017-03-08T11:42:18.114Z,6.72
2017-03-08T11:43:18.084Z,6.75
2017-03-08T11:44:18.058Z,6.77
2017-03-08T11:45:18.033Z,6.69
2017-03-08T11:46:18.019Z,6.69
2017-03-08T11:47:17.598Z,6.77
2017-03-08T11:48:17.972Z,6.81
2017-03-08T11:49:17.932Z,6.73
2017-03-08T11:50:17.931Z,6.75
2017-03-08T11:51:17.620Z,6.66
2017-03-08T11:52:17.944Z,6.75
2017-03-08T11:53:17.497Z,6.72
2017-03-08T11:54:17.960Z,6.84
2017-03-08T11:55:17.818Z,6.77
2017-03-08T11:56:17.389Z,6.65
2017-03-08T11:57:17.738Z,6.8
2017-03-08T11:58:17.727Z,6.72
2017-03-08T11:59:17.705Z,6.75
2017-03-08T12:00:17.710Z,6.73
2017-03-08T12:01:16.868Z,6.68
2017-03-08T12:02:17.628Z,6.8
2017-03-08T12:03:17.251Z,6.69
2017-03-08T12:04:17.574Z,6.78
2017-03-08T12:05:17.544Z,6.81
2017-03-08T12:06:17.166Z,6.93
2017-03-08T12:07:17.523Z,7.08
2017-03-08T12:08:17.501Z,6.96
2017-03-08T12:09:17.074Z,7.02
2017-03-08T12:10:17.418Z,6.8
2017-03-08T12:11:17.420Z,6.81
2017-03-08T12:12:17.419Z,6.77
2017-03-08T12:13:17.369Z,6.75
2017-03-08T12:14:17.339Z,6.75
2017-03-08T12:15:17.328Z,6.75
2017-03-08T12:16:17.288Z,6.73
2017-03-08T12:17:17.277Z,6.75
2017-03-08T12:18:17.227Z,6.87
2017-03-08T12:19:16.845Z,6.75
2017-03-08T12:20:17.214Z,6.7
2017-03-08T12:21:16.398Z,6.72
2017-03-08T12:22:16.750Z,6.78
2017-03-08T12:23:17.188Z,6.75
2017-03-08T12:24:17.113Z,6.75
2017-03-08T12:25:16.704Z,6.9
2017-03-08T12:26:16.672Z,6.88
2017-03-08T12:27:16.659Z,6.83
2017-03-08T12:28:16.609Z,6.96
2017-03-08T12:29:17.014Z,6.8
2017-03-08T12:30:16.565Z,6.87
2017-03-08T12:31:16.550Z,6.91
2017-03-08T12:32:16.900Z,6.88
2017-03-08T12:33:16.992Z,6.94
2017-03-08T12:34:16.849Z,6.78
2017-03-08T12:35:16.476Z,6.87
2017-03-08T12:36:16.819Z,6.84
2017-03-08T12:37:16.436Z,6.87
2017-03-08T12:38:16.379Z,6.84
2017-03-08T12:39:16.747Z,6.91
2017-03-08T12:40:15.926Z,6.84
2017-03-08T12:41:16.327Z,6.9
2017-03-08T12:42:15.875Z,6.73
2017-03-08T12:43:16.294Z,6.7
2017-03-08T12:44:16.605Z,6.78
2017-03-08T12:45:16.590Z,6.78
2017-03-08T12:46:16.574Z,6.77
2017-03-08T12:47:16.555Z,6.81
2017-03-08T12:48:16.132Z,6.88
2017-03-08T12:49:16.604Z,6.83
2017-03-08T12:50:16.541Z,6.84
2017-03-08T12:51:16.460Z,6.84
2017-03-08T12:52:16.031Z,6.9
2017-03-08T12:53:16.500Z,6.96
2017-03-08T12:54:15.990Z,6.8
2017-03-08T12:55:15.979Z,6.75
2017-03-08T12:56:15.947Z,6.66
2017-03-08T12:57:15.945Z,6.59
2017-03-08T12:58:15.904Z,6.54
2017-03-08T12:59:15.879Z,6.68
2017-03-08T13:00:15.916Z,6.68
2017-03-08T13:01:15.858Z,6.55
2017-03-08T13:02:15.804Z,6.44
2017-03-08T13:03:15.813Z,6.59
2017-03-08T13:04:16.145Z,6.48
2017-03-08T13:05:15.734Z,6.45
2017-03-08T13:06:15.705Z,6.44
2017-03-08T13:07:15.686Z,6.43
2017-03-08T13:08:16.141Z,6.52
2017-03-08T13:09:16.067Z,6.47
2017-03-08T13:10:15.677Z,6.48
2017-03-08T13:11:15.720Z,6.51
2017-03-08T13:12:15.691Z,6.44
2017-03-08T13:13:15.531Z,6.52
2017-03-08T13:14:15.900Z,6.52
2017-03-08T13:15:15.927Z,6.63
2017-03-08T13:16:15.946Z,6.5
2017-03-08T13:17:15.880Z,6.45
2017-03-08T13:18:15.569Z,6.47
2017-03-08T13:19:15.383Z,6.43
2017-03-08T13:20:15.768Z,6.3
2017-03-08T13:21:15.826Z,6.27
2017-03-08T13:22:15.315Z,6.45